Time;durP1;ratioP1;P1;durP2;ratioP2;P2;SDS_P1;SDS_P2;PMS_P1;PMS_P2;Temp;Humidity;BMP_temperature;BMP_pressure;BME280_temperature;BME280_humidity;BME280_pressure;Samples;Min_cycle;Max_cycle;Signal;HPM_P1;HPM_P2
2022/02/13 00:00:13;;;;;;;;;;;22.60;31.50;;;;;;689812;28;1222;-82
2022/02/13 00:00:35;;;;;;;;;;;22.60;31.60;;;;;;689633;28;1187;-83
2022/02/13 00:00:56;;;;;;;;;;;22.50;31.50;;;;;;688760;28;1361;-82
2022/02/13 00:01:18;;;;;;;;;;;22.50;31.60;;;;;;689926;28;1123;-82
2022/02/13 00:01:38;;;;;;;;;;;22.60;31.60;;;;;;688312;28;1282;-83
2022/02/13 00:01:59;;;;;;;;;;;22.50;31.60;;;;;;690301;28;1155;-83
2022/02/13 00:02:20;;;;;;;;;;;22.60;31.70;;;;;;689153;28;1321;-82
2022/02/13 00:02:40;;;;;;;;;;;22.50;31.70;;;;;;690044;28;1506;-82
2022/02/13 00:03:01;;;;;;;;;;;22.50;31.80;;;;;;691036;28;1969;-82
2022/02/13 00:03:21;;;;;;;;;;;22.50;31.70;;;;;;688379;28;1216;-83
2022/02/13 00:03:42;;;;;;;;;;;22.50;31.80;;;;;;688236;28;827;-79
2022/02/13 00:04:03;;;;;;;;;;;22.50;31.90;;;;;;688226;28;780;-81
2022/02/13 00:04:24;;;;;;;;;;;22.50;31.90;;;;;;685758;28;1420;-82
2022/02/13 00:04:44;;;;;;;;;;;22.50;31.90;;;;;;686181;28;803;-82
2022/02/13 00:05:05;;;;;;;;;;;22.50;31.90;;;;;;688655;28;1234;-82
2022/02/13 00:05:26;;;;;;;;;;;22.50;31.90;;;;;;691302;28;1048;-81
2022/02/13 00:05:46;;;;;;;;;;;22.50;31.90;;;;;;688152;28;1343;-83
2022/02/13 00:06:07;;;;;;;;;;;22.50;32.00;;;;;;688566;28;961;-82
2022/02/13 00:06:28;;;;;;;;;;;22.50;32.00;;;;;;688548;28;843;-83
2022/02/13 00:06:48;;;;;;;;;;;22.50;32.00;;;;;;686223;28;1154;-82
2022/02/13 00:07:09;;;;;;;;;;;22.50;32.00;;;;;;684235;28;1349;-83
2022/02/13 00:07:30;;;;;;;;;;;22.50;32.00;;;;;;684661;28;1532;-81
2022/02/13 00:07:50;;;;;;;;;;;22.50;32.00;;;;;;685865;28;784;-81
2022/02/13 00:08:11;;;;;;;;;;;22.50;32.00;;;;;;687678;28;1820;-82
2022/02/13 00:08:32;;;;;;;;;;;22.50;32.00;;;;;;688481;28;938;-82
2022/02/13 00:08:53;;;;;;;;;;;22.50;32.10;;;;;;688375;28;1325;-83
2022/02/13 00:09:14;;;;;;;;;;;22.50;32.10;;;;;;688711;28;855;-82
2022/02/13 00:09:36;;;;;;;;;;;22.50;32.10;;;;;;690838;28;1538;-82
2022/02/13 00:09:57;;;;;;;;;;;22.50;32.10;;;;;;691360;28;838;-81
2022/02/13 00:10:18;;;;;;;;;;;22.50;32.10;;;;;;691460;28;799;-82
2022/02/13 00:10:38;;;;;;;;;;;22.50;32.10;;;;;;691430;28;846;-81
2022/02/13 00:10:59;;;;;;;;;;;22.50;32.30;;;;;;691248;28;608;-83
2022/02/13 00:11:19;;;;;;;;;;;22.50;32.30;;;;;;690928;28;1403;-82
2022/02/13 00:11:40;;;;;;;;;;;22.50;32.30;;;;;;691353;28;834;-83
2022/02/13 00:12:02;;;;;;;;;;;22.50;32.40;;;;;;691078;28;1109;-82
2022/02/13 00:12:23;;;;;;;;;;;22.50;32.50;;;;;;691162;28;1546;-83
2022/02/13 00:12:43;;;;;;;;;;;22.50;32.40;;;;;;691328;28;862;-83
2022/02/13 00:13:04;;;;;;;;;;;22.50;32.40;;;;;;691070;28;973;-83
2022/02/13 00:13:25;;;;;;;;;;;22.50;32.40;;;;;;691041;28;1534;-83
2022/02/13 00:13:48;;;;;;;;;;;22.50;32.40;;;;;;691187;28;1321;-83
2022/02/13 00:14:09;;;;;;;;;;;22.50;32.40;;;;;;691124;28;942;-82
2022/02/13 00:14:29;;;;;;;;;;;22.50;32.40;;;;;;691227;28;790;-82
2022/02/13 00:14:50;;;;;;;;;;;22.50;32.30;;;;;;691240;28;949;-80
2022/02/13 00:15:11;;;;;;;;;;;22.50;32.40;;;;;;691206;28;806;-82
2022/02/13 00:15:31;;;;;;;;;;;22.50;32.40;;;;;;691024;28;1420;-82
2022/02/13 00:15:52;;;;;;;;;;;22.50;32.50;;;;;;691204;28;865;-83
2022/02/13 00:16:13;;;;;;;;;;;22.50;32.50;;;;;;691250;28;866;-80
2022/02/13 00:16:35;;;;;;;;;;;22.50;32.60;;;;;;691145;28;877;-82
2022/02/13 00:16:55;;;;;;;;;;;22.50;32.60;;;;;;691156;28;862;-82
2022/02/13 00:17:16;;;;;;;;;;;22.50;32.40;;;;;;688866;28;1579;-82
2022/02/13 00:17:36;;;;;;;;;;;22.50;32.50;;;;;;691177;28;971;-81
2022/02/13 00:17:57;;;;;;;;;;;22.60;32.70;;;;;;688382;28;1292;-81
2022/02/13 00:18:17;;;;;;;;;;;22.50;32.60;;;;;;688451;28;965;-82
2022/02/13 00:18:38;;;;;;;;;;;22.40;32.60;;;;;;688312;28;1435;-82
2022/02/13 00:18:59;;;;;;;;;;;22.50;32.60;;;;;;688384;28;1208;-83
2022/02/13 00:19:19;;;;;;;;;;;22.50;32.60;;;;;;688377;28;826;-81
2022/02/13 00:19:41;;;;;;;;;;;22.40;32.50;;;;;;688755;28;882;-83
2022/02/13 00:20:02;;;;;;;;;;;22.50;32.60;;;;;;691188;28;814;-82
2022/02/13 00:20:23;;;;;;;;;;;22.50;32.60;;;;;;691021;28;897;-82
2022/02/13 00:20:44;;;;;;;;;;;22.50;32.60;;;;;;691267;28;563;-83
2022/02/13 00:21:04;;;;;;;;;;;22.50;32.60;;;;;;688436;28;1101;-82
2022/02/13 00:21:25;;;;;;;;;;;22.40;32.60;;;;;;688012;28;1339;-82
2022/02/13 00:21:46;;;;;;;;;;;22.50;32.60;;;;;;688593;28;814;-83
2022/02/13 00:22:06;;;;;;;;;;;22.40;32.70;;;;;;688528;28;870;-82
2022/02/13 00:22:27;;;;;;;;;;;22.50;32.80;;;;;;688229;28;1209;-82
2022/02/13 00:22:48;;;;;;;;;;;22.50;32.80;;;;;;688641;28;854;-82
2022/02/13 00:23:09;;;;;;;;;;;22.40;32.70;;;;;;688763;28;1914;-82
2022/02/13 00:23:29;;;;;;;;;;;22.40;32.80;;;;;;691135;28;842;-83
2022/02/13 00:23:50;;;;;;;;;;;22.40;32.70;;;;;;691217;28;818;-83
2022/02/13 00:24:11;;;;;;;;;;;22.40;32.70;;;;;;691560;28;980;-82
2022/02/13 00:24:31;;;;;;;;;;;22.40;32.80;;;;;;693961;28;799;-82
2022/02/13 00:24:52;;;;;;;;;;;22.40;32.90;;;;;;692174;28;1329;-83
2022/02/13 00:25:12;;;;;;;;;;;22.40;32.80;;;;;;690485;28;854;-82
2022/02/13 00:25:33;;;;;;;;;;;22.40;32.80;;;;;;691214;28;854;-82
2022/02/13 00:25:53;;;;;;;;;;;22.40;32.90;;;;;;691180;28;799;-82
2022/02/13 00:26:14;;;;;;;;;;;22.40;32.90;;;;;;691059;28;1338;-83
2022/02/13 00:26:36;;;;;;;;;;;22.40;32.80;;;;;;691214;28;818;-82
2022/02/13 00:26:56;;;;;;;;;;;22.40;34.00;;;;;;691240;28;874;-82
2022/02/13 00:27:17;;;;;;;;;;;22.40;32.80;;;;;;691292;28;1454;-81
2022/02/13 00:27:37;;;;;;;;;;;22.40;32.80;;;;;;691333;28;874;-82
2022/02/13 00:27:58;;;;;;;;;;;22.40;32.80;;;;;;691254;28;826;-80
2022/02/13 00:28:19;;;;;;;;;;;22.40;32.80;;;;;;691166;28;1574;-83
2022/02/13 00:28:39;;;;;;;;;;;22.40;32.90;;;;;;688342;28;1596;-82
2022/02/13 00:29:00;;;;;;;;;;;22.40;33.00;;;;;;688464;28;831;-81
2022/02/13 00:29:20;;;;;;;;;;;22.40;32.90;;;;;;688449;28;847;-83
2022/02/13 00:29:41;;;;;;;;;;;22.40;33.00;;;;;;685793;28;1224;-82
2022/02/13 00:30:02;;;;;;;;;;;22.40;34.00;;;;;;682858;28;1337;-81
2022/02/13 00:30:22;;;;;;;;;;;22.50;33.10;;;;;;686069;28;827;-83
2022/02/13 00:30:46;;;;;;;;;;;22.40;33.00;;;;;;688621;28;807;-82
2022/02/13 00:31:07;;;;;;;;;;;22.40;33.00;;;;;;688317;28;1302;-83
2022/02/13 00:31:27;;;;;;;;;;;22.40;33.00;;;;;;688898;28;1335;-81
2022/02/13 00:31:48;;;;;;;;;;;22.40;33.00;;;;;;689152;28;1487;-82
2022/02/13 00:32:09;;;;;;;;;;;22.40;33.00;;;;;;691130;28;810;-83
2022/02/13 00:32:30;;;;;;;;;;;22.40;33.00;;;;;;691105;28;838;-81
2022/02/13 00:32:52;;;;;;;;;;;22.40;33.00;;;;;;691181;28;815;-81
2022/02/13 00:33:13;;;;;;;;;;;22.40;33.00;;;;;;691245;28;877;-82
2022/02/13 00:33:34;;;;;;;;;;;22.40;33.10;;;;;;691142;28;791;-81
2022/02/13 00:33:55;;;;;;;;;;;22.40;33.10;;;;;;691002;28;885;-82
2022/02/13 00:34:16;;;;;;;;;;;22.40;33.20;;;;;;691155;28;837;-82
2022/02/13 00:34:36;;;;;;;;;;;22.40;33.10;;;;;;691123;28;795;-81
2022/02/13 00:34:57;;;;;;;;;;;22.40;33.10;;;;;;691212;28;818;-81
2022/02/13 00:35:17;;;;;;;;;;;22.40;33.20;;;;;;691250;28;957;-81
2022/02/13 00:35:38;;;;;;;;;;;22.40;33.20;;;;;;691106;28;965;-81
2022/02/13 00:35:59;;;;;;;;;;;22.40;33.10;;;;;;691622;28;889;-83
2022/02/13 00:36:19;;;;;;;;;;;22.40;33.20;;;;;;691331;28;822;-82
2022/02/13 00:36:40;;;;;;;;;;;22.40;33.20;;;;;;691426;28;748;-83
2022/02/13 00:37:01;;;;;;;;;;;22.40;33.20;;;;;;691014;28;1649;-83
2022/02/13 00:37:21;;;;;;;;;;;22.40;33.20;;;;;;691151;28;811;-80
2022/02/13 00:37:42;;;;;;;;;;;22.40;33.30;;;;;;691098;28;1294;-83
2022/02/13 00:38:03;;;;;;;;;;;22.40;33.20;;;;;;691172;28;842;-82
2022/02/13 00:38:23;;;;;;;;;;;22.40;33.20;;;;;;691056;28;945;-82
2022/02/13 00:38:45;;;;;;;;;;;22.40;33.10;;;;;;691230;28;1313;-83
2022/02/13 00:39:09;;;;;;;;;;;22.40;33.10;;;;;;691084;28;827;-83
2022/02/13 00:39:30;;;;;;;;;;;22.40;33.10;;;;;;691053;28;799;-82
2022/02/13 00:39:50;;;;;;;;;;;22.40;33.20;;;;;;691115;28;1484;-82
2022/02/13 00:40:11;;;;;;;;;;;22.40;33.20;;;;;;691231;28;1398;-82
2022/02/13 00:40:32;;;;;;;;;;;22.40;33.30;;;;;;691009;28;873;-82
2022/02/13 00:40:52;;;;;;;;;;;22.40;33.30;;;;;;688411;28;1223;-83
2022/02/13 00:41:13;;;;;;;;;;;22.40;33.30;;;;;;688312;28;1221;-83
2022/02/13 00:41:34;;;;;;;;;;;22.40;33.40;;;;;;687939;28;1463;-82
2022/02/13 00:41:55;;;;;;;;;;;22.40;33.40;;;;;;688374;28;910;-82
2022/02/13 00:42:15;;;;;;;;;;;22.40;33.30;;;;;;685367;28;880;-82
2022/02/13 00:42:36;;;;;;;;;;;22.40;33.30;;;;;;683173;28;1496;-82
2022/02/13 00:42:56;;;;;;;;;;;22.40;33.20;;;;;;685742;28;815;-81
2022/02/13 00:43:17;;;;;;;;;;;22.40;33.20;;;;;;686015;28;1959;-82
2022/02/13 00:43:38;;;;;;;;;;;22.40;33.30;;;;;;688369;28;847;-81
2022/02/13 00:43:58;;;;;;;;;;;22.40;33.40;;;;;;688713;28;838;-82
2022/02/13 00:44:19;;;;;;;;;;;22.40;33.30;;;;;;691223;28;845;-84
2022/02/13 00:44:39;;;;;;;;;;;22.40;33.30;;;;;;690901;28;1551;-82
2022/02/13 00:45:00;;;;;;;;;;;22.40;33.30;;;;;;690630;28;1442;-81
2022/02/13 00:45:21;;;;;;;;;;;22.40;33.30;;;;;;691039;28;1302;-82
2022/02/13 00:45:42;;;;;;;;;;;22.30;33.30;;;;;;690630;28;1579;-82
2022/02/13 00:46:02;;;;;;;;;;;22.40;33.30;;;;;;691124;28;783;-81
2022/02/13 00:46:23;;;;;;;;;;;22.30;33.40;;;;;;691126;28;810;-82
2022/02/13 00:46:43;;;;;;;;;;;22.40;33.40;;;;;;691157;28;902;-81
2022/02/13 00:47:05;;;;;;;;;;;22.40;33.40;;;;;;690309;28;914;-82
2022/02/13 00:47:26;;;;;;;;;;;22.40;33.30;;;;;;690987;28;1415;-81
2022/02/13 00:47:46;;;;;;;;;;;22.40;33.40;;;;;;691154;28;823;-82
2022/02/13 00:48:10;;;;;;;;;;;22.40;33.50;;;;;;691118;28;933;-82
2022/02/13 00:48:30;;;;;;;;;;;22.40;33.40;;;;;;687934;28;929;-81
2022/02/13 00:48:51;;;;;;;;;;;22.40;33.30;;;;;;689098;28;1358;-81
2022/02/13 00:49:12;;;;;;;;;;;22.30;33.50;;;;;;691242;28;779;-81
2022/02/13 00:49:32;;;;;;;;;;;22.40;33.50;;;;;;691140;28;838;-80
2022/02/13 00:49:53;;;;;;;;;;;22.40;33.50;;;;;;691077;28;810;-82
2022/02/13 00:50:13;;;;;;;;;;;22.40;33.40;;;;;;688647;28;1265;-81
2022/02/13 00:50:34;;;;;;;;;;;22.40;33.50;;;;;;691043;28;965;-82
2022/02/13 00:50:55;;;;;;;;;;;22.30;33.40;;;;;;691062;28;946;-82
2022/02/13 00:51:15;;;;;;;;;;;22.40;33.50;;;;;;691268;28;897;-82
2022/02/13 00:51:36;;;;;;;;;;;22.40;33.50;;;;;;688243;28;1316;-81
2022/02/13 00:51:56;;;;;;;;;;;22.30;33.40;;;;;;688731;28;870;-80
2022/02/13 00:52:17;;;;;;;;;;;22.40;33.50;;;;;;691310;28;870;-80
2022/02/13 00:52:38;;;;;;;;;;;22.40;33.40;;;;;;691062;28;1034;-80
2022/02/13 00:52:58;;;;;;;;;;;22.30;33.40;;;;;;688203;28;883;-80
2022/02/13 00:53:19;;;;;;;;;;;22.40;33.50;;;;;;688744;28;807;-80
2022/02/13 00:53:39;;;;;;;;;;;22.40;33.50;;;;;;687987;28;1268;-84
2022/02/13 00:54:00;;;;;;;;;;;22.40;33.50;;;;;;687912;28;1377;-80
2022/02/13 00:54:21;;;;;;;;;;;22.40;33.50;;;;;;688285;28;923;-81
2022/02/13 00:54:41;;;;;;;;;;;22.30;33.50;;;;;;688807;28;913;-82
2022/02/13 00:55:02;;;;;;;;;;;22.30;33.50;;;;;;690983;28;1448;-81
2022/02/13 00:55:22;;;;;;;;;;;22.40;33.50;;;;;;691055;28;885;-81
2022/02/13 00:55:43;;;;;;;;;;;22.30;33.50;;;;;;691271;28;918;-81
2022/02/13 00:56:04;;;;;;;;;;;22.30;33.50;;;;;;691406;28;850;-81
2022/02/13 00:56:25;;;;;;;;;;;22.30;33.50;;;;;;691154;28;882;-81
2022/02/13 00:56:45;;;;;;;;;;;22.30;33.60;;;;;;690993;28;1193;-79
2022/02/13 00:57:06;;;;;;;;;;;22.30;33.50;;;;;;688075;28;1382;-81
2022/02/13 00:57:27;;;;;;;;;;;22.20;33.50;;;;;;688432;28;882;-82
2022/02/13 00:57:47;;;;;;;;;;;22.30;33.70;;;;;;688430;28;850;-80
2022/02/13 00:58:08;;;;;;;;;;;22.40;33.60;;;;;;688406;28;787;-81
2022/02/13 00:58:28;;;;;;;;;;;22.30;33.50;;;;;;688533;28;1330;-79
2022/02/13 00:58:49;;;;;;;;;;;22.30;33.60;;;;;;688850;28;1435;-78
2022/02/13 00:59:09;;;;;;;;;;;22.40;34.70;;;;;;691104;28;815;-80
2022/02/13 00:59:30;;;;;;;;;;;22.30;33.50;;;;;;691044;28;902;-79
2022/02/13 00:59:51;;;;;;;;;;;22.30;33.60;;;;;;690892;28;1177;-80
2022/02/13 01:00:11;;;;;;;;;;;22.30;33.60;;;;;;691183;28;957;-80
2022/02/13 01:00:32;;;;;;;;;;;22.30;33.60;;;;;;691039;28;1214;-79
2022/02/13 01:00:52;;;;;;;;;;;22.30;33.60;;;;;;691091;28;803;-81
2022/02/13 01:01:13;;;;;;;;;;;22.30;33.60;;;;;;691086;28;1326;-81
2022/02/13 01:01:34;;;;;;;;;;;22.30;33.60;;;;;;691098;28;783;-81
2022/02/13 01:01:54;;;;;;;;;;;22.30;33.70;;;;;;690946;28;1197;-81
2022/02/13 01:02:15;;;;;;;;;;;22.30;33.70;;;;;;689568;28;1471;-81
2022/02/13 01:02:35;;;;;;;;;;;22.30;33.60;;;;;;688409;28;886;-80
2022/02/13 01:02:56;;;;;;;;;;;22.40;33.70;;;;;;688418;28;791;-81
2022/02/13 01:03:17;;;;;;;;;;;22.10;33.60;;;;;;688252;28;1898;-80
2022/02/13 01:03:37;;;;;;;;;;;22.30;33.70;;;;;;688222;28;819;-80
2022/02/13 01:03:58;;;;;;;;;;;22.30;33.70;;;;;;688370;28;838;-80
2022/02/13 01:04:19;;;;;;;;;;;22.30;33.70;;;;;;688532;28;870;-81
2022/02/13 01:04:39;;;;;;;;;;;22.30;33.60;;;;;;688571;28;787;-81
2022/02/13 01:05:00;;;;;;;;;;;22.30;33.60;;;;;;688327;28;776;-80
2022/02/13 01:05:21;;;;;;;;;;;22.30;33.60;;;;;;688353;28;933;-79
2022/02/13 01:05:41;;;;;;;;;;;22.30;33.70;;;;;;688457;28;922;-80
2022/02/13 01:06:02;;;;;;;;;;;22.30;33.70;;;;;;688335;28;842;-79
2022/02/13 01:06:24;;;;;;;;;;;22.30;33.70;;;;;;688362;28;803;-79
2022/02/13 01:06:45;;;;;;;;;;;22.30;33.90;;;;;;688541;28;873;-80
2022/02/13 01:07:05;;;;;;;;;;;22.30;33.90;;;;;;688344;28;1334;-79
2022/02/13 01:07:26;;;;;;;;;;;22.40;34.10;;;;;;688578;28;851;-80
2022/02/13 01:07:47;;;;;;;;;;;22.40;34.10;;;;;;688402;28;1580;-79
2022/02/13 01:08:07;;;;;;;;;;;22.40;34.20;;;;;;688145;28;1374;-79
2022/02/13 01:08:28;;;;;;;;;;;22.40;34.10;;;;;;688191;28;1557;-79
2022/02/13 01:08:48;;;;;;;;;;;22.40;34.10;;;;;;688545;28;864;-79
2022/02/13 01:09:09;;;;;;;;;;;22.40;34.10;;;;;;688340;28;787;-79
2022/02/13 01:09:30;;;;;;;;;;;22.40;34.10;;;;;;688406;28;925;-80
2022/02/13 01:09:51;;;;;;;;;;;22.40;34.10;;;;;;688314;28;1162;-80
2022/02/13 01:10:12;;;;;;;;;;;22.40;34.10;;;;;;688445;28;862;-80
2022/02/13 01:10:32;;;;;;;;;;;22.40;34.00;;;;;;688413;28;827;-80
2022/02/13 01:10:53;;;;;;;;;;;22.40;34.10;;;;;;685817;28;1318;-80
2022/02/13 01:11:14;;;;;;;;;;;22.40;34.00;;;;;;682993;29;1226;-80
2022/02/13 01:11:59;;;;;;;;;;;22.40;34.00;;;;;;682909;29;1370;-80
2022/02/13 01:12:19;;;;;;;;;;;22.40;34.10;;;;;;683025;29;1287;-80
2022/02/13 01:12:40;;;;;;;;;;;22.40;34.00;;;;;;683913;28;891;-80
2022/02/13 01:13:01;;;;;;;;;;;22.40;34.10;;;;;;683614;28;1474;-81
2022/02/13 01:13:22;;;;;;;;;;;22.50;34.00;;;;;;686547;28;967;-80
2022/02/13 01:13:44;;;;;;;;;;;22.40;34.00;;;;;;685805;28;1334;-81
2022/02/13 01:14:05;;;;;;;;;;;22.50;34.00;;;;;;682920;29;807;-80
2022/02/13 01:14:26;;;;;;;;;;;22.50;34.10;;;;;;680320;29;808;-80
2022/02/13 01:14:46;;;;;;;;;;;22.50;34.00;;;;;;680526;29;1347;-77
2022/02/13 01:15:07;;;;;;;;;;;22.40;34.00;;;;;;680600;29;768;-80
2022/02/13 01:15:28;;;;;;;;;;;22.50;34.00;;;;;;681488;29;840;-79
2022/02/13 01:15:48;;;;;;;;;;;22.40;34.00;;;;;;683652;28;879;-81
2022/02/13 01:16:09;;;;;;;;;;;22.50;34.00;;;;;;681292;29;879;-81
2022/02/13 01:16:29;;;;;;;;;;;22.50;34.00;;;;;;683934;29;902;-81
2022/02/13 01:16:50;;;;;;;;;;;22.50;34.00;;;;;;684193;28;745;-81
2022/02/13 01:17:10;;;;;;;;;;;22.50;34.00;;;;;;684107;28;1229;-80
2022/02/13 01:17:31;;;;;;;;;;;22.50;34.00;;;;;;686547;28;867;-80
2022/02/13 01:17:51;;;;;;;;;;;22.50;34.00;;;;;;686633;28;815;-80
2022/02/13 01:18:13;;;;;;;;;;;22.50;34.00;;;;;;689131;28;811;-82
2022/02/13 01:18:33;;;;;;;;;;;22.50;34.00;;;;;;689250;28;827;-81
2022/02/13 01:18:54;;;;;;;;;;;22.50;34.00;;;;;;689363;28;1390;-81
2022/02/13 01:19:15;;;;;;;;;;;22.50;34.00;;;;;;689327;28;780;-81
2022/02/13 01:19:36;;;;;;;;;;;22.50;34.00;;;;;;689650;28;807;-80
2022/02/13 01:19:56;;;;;;;;;;;22.50;34.00;;;;;;689086;28;819;-81
2022/02/13 01:20:17;;;;;;;;;;;22.50;34.00;;;;;;689147;28;842;-80
2022/02/13 01:20:37;;;;;;;;;;;22.50;34.00;;;;;;686906;28;1233;-78
2022/02/13 01:20:59;;;;;;;;;;;22.50;34.00;;;;;;689277;28;815;-82
2022/02/13 01:21:19;;;;;;;;;;;22.50;34.00;;;;;;689156;28;850;-82
2022/02/13 01:21:40;;;;;;;;;;;22.50;34.00;;;;;;686971;28;969;-82
2022/02/13 01:22:04;;;;;;;;;;;22.50;34.00;;;;;;686500;28;843;-82
2022/02/13 01:22:25;;;;;;;;;;;22.50;34.00;;;;;;687897;28;847;-81
2022/02/13 01:22:45;;;;;;;;;;;22.50;34.00;;;;;;690651;28;933;-82
2022/02/13 01:23:06;;;;;;;;;;;22.50;34.00;;;;;;689018;28;1898;-82
2022/02/13 01:23:26;;;;;;;;;;;22.50;34.00;;;;;;690128;28;985;-81
2022/02/13 01:23:47;;;;;;;;;;;22.50;34.00;;;;;;689883;28;834;-81
2022/02/13 01:24:08;;;;;;;;;;;22.50;34.00;;;;;;689346;28;1103;-79
2022/02/13 01:24:29;;;;;;;;;;;22.50;34.00;;;;;;689054;28;1509;-82
2022/02/13 01:24:49;;;;;;;;;;;22.50;34.00;;;;;;689360;28;830;-82
2022/02/13 01:25:10;;;;;;;;;;;22.60;34.00;;;;;;689684;28;1412;-80
2022/02/13 01:25:30;;;;;;;;;;;22.50;34.00;;;;;;689448;28;1056;-83
2022/02/13 01:25:51;;;;;;;;;;;22.50;34.00;;;;;;687187;28;1487;-82
2022/02/13 01:26:12;;;;;;;;;;;22.60;34.00;;;;;;685392;29;1586;-81
2022/02/13 01:26:33;;;;;;;;;;;22.50;34.00;;;;;;684584;28;1112;-79
2022/02/13 01:26:53;;;;;;;;;;;22.60;34.10;;;;;;684970;28;1056;-81
2022/02/13 01:27:14;;;;;;;;;;;22.60;34.00;;;;;;686446;28;1144;-80
2022/02/13 01:27:34;;;;;;;;;;;22.60;34.00;;;;;;687142;28;1467;-81
2022/02/13 01:27:55;;;;;;;;;;;22.50;33.90;;;;;;688784;28;1174;-80
2022/02/13 01:28:15;;;;;;;;;;;22.60;34.00;;;;;;689445;28;997;-80
2022/02/13 01:28:36;;;;;;;;;;;22.60;35.10;;;;;;686320;29;911;-79
2022/02/13 01:28:57;;;;;;;;;;;22.80;34.10;;;;;;686086;29;1225;-80
2022/02/13 01:29:18;;;;;;;;;;;22.60;34.10;;;;;;686740;28;1096;-80
2022/02/13 01:29:38;;;;;;;;;;;22.60;34.00;;;;;;689299;28;835;-81
2022/02/13 01:29:59;;;;;;;;;;;22.60;34.00;;;;;;688494;28;1072;-81
2022/02/13 01:30:20;;;;;;;;;;;22.60;34.00;;;;;;688753;28;1120;-80
2022/02/13 01:30:40;;;;;;;;;;;22.60;34.00;;;;;;689450;28;1084;-81
2022/02/13 01:31:02;;;;;;;;;;;22.60;34.10;;;;;;688952;28;890;-80
2022/02/13 01:31:23;;;;;;;;;;;22.60;34.00;;;;;;688830;28;1445;-81
2022/02/13 01:31:43;;;;;;;;;;;22.60;34.10;;;;;;689448;28;994;-80
2022/02/13 01:32:04;;;;;;;;;;;22.60;34.00;;;;;;688324;28;1464;-81
2022/02/13 01:32:25;;;;;;;;;;;22.60;34.10;;;;;;686092;29;1280;-80
2022/02/13 01:32:45;;;;;;;;;;;22.60;34.10;;;;;;686562;29;1475;-80
2022/02/13 01:33:06;;;;;;;;;;;22.60;34.10;;;;;;686450;29;1021;-81
2022/02/13 01:33:27;;;;;;;;;;;22.60;34.10;;;;;;686679;29;1330;-80
2022/02/13 01:33:47;;;;;;;;;;;22.60;34.10;;;;;;687092;28;942;-80
2022/02/13 01:34:08;;;;;;;;;;;22.60;34.10;;;;;;689057;28;911;-79
2022/02/13 01:34:28;;;;;;;;;;;22.60;34.10;;;;;;689425;28;1052;-81
2022/02/13 01:34:49;;;;;;;;;;;22.60;34.10;;;;;;692019;28;883;-81
2022/02/13 01:35:10;;;;;;;;;;;22.60;34.10;;;;;;692069;28;1143;-81
2022/02/13 01:35:31;;;;;;;;;;;22.60;34.10;;;;;;691958;28;836;-81
2022/02/13 01:35:51;;;;;;;;;;;22.60;34.10;;;;;;691975;28;1080;-80
2022/02/13 01:36:12;;;;;;;;;;;22.60;34.10;;;;;;692040;28;1386;-81
2022/02/13 01:36:33;;;;;;;;;;;22.60;34.10;;;;;;691951;28;1313;-80
2022/02/13 01:36:54;;;;;;;;;;;22.60;34.10;;;;;;692081;28;1131;-79
2022/02/13 01:37:14;;;;;;;;;;;22.60;34.10;;;;;;691865;28;1403;-81
2022/02/13 01:37:35;;;;;;;;;;;22.60;34.10;;;;;;689145;28;1168;-80
2022/02/13 01:37:56;;;;;;;;;;;22.60;34.10;;;;;;689066;28;973;-81
2022/02/13 01:38:16;;;;;;;;;;;22.60;34.10;;;;;;689061;28;1452;-80
2022/02/13 01:38:37;;;;;;;;;;;22.60;34.10;;;;;;691681;28;981;-80
2022/02/13 01:38:57;;;;;;;;;;;22.60;34.20;;;;;;691597;28;823;-80
2022/02/13 01:39:18;;;;;;;;;;;22.60;34.20;;;;;;688233;28;906;-81
2022/02/13 01:39:38;;;;;;;;;;;22.60;34.20;;;;;;688285;28;1073;-81
2022/02/13 01:39:59;;;;;;;;;;;22.60;34.30;;;;;;688851;28;800;-81
2022/02/13 01:40:20;;;;;;;;;;;22.60;34.20;;;;;;690690;28;1099;-81
2022/02/13 01:40:40;;;;;;;;;;;22.60;34.20;;;;;;689452;28;788;-80
2022/02/13 01:41:01;;;;;;;;;;;22.60;34.20;;;;;;686332;28;1566;-83
2022/02/13 01:41:22;;;;;;;;;;;22.60;34.10;;;;;;688886;28;917;-78
2022/02/13 01:41:45;;;;;;;;;;;22.60;34.10;;;;;;688915;28;752;-80
2022/02/13 01:42:09;;;;;;;;;;;22.60;34.20;;;;;;686042;28;1117;-81
2022/02/13 01:42:29;;;;;;;;;;;22.60;34.20;;;;;;686169;28;906;-80
2022/02/13 01:42:50;;;;;;;;;;;22.60;34.20;;;;;;687232;28;831;-81
2022/02/13 01:43:10;;;;;;;;;;;22.60;34.20;;;;;;686132;28;1918;-80
2022/02/13 01:43:31;;;;;;;;;;;22.60;34.20;;;;;;686006;28;772;-80
2022/02/13 01:43:55;;;;;;;;;;;22.60;34.10;;;;;;686249;28;796;-80
2022/02/13 01:44:25;;;;;;;;;;;22.60;34.20;;;;;;686296;28;847;-80
2022/02/13 01:44:46;;;;;;;;;;;22.50;34.20;;;;;;686123;28;1607;-79
2022/02/13 01:45:07;;;;;;;;;;;22.60;34.30;;;;;;685534;28;1554;-79
2022/02/13 01:45:27;;;;;;;;;;;22.50;34.20;;;;;;683384;29;1311;-80
2022/02/13 01:45:48;;;;;;;;;;;22.50;34.20;;;;;;680747;29;1201;-80
2022/02/13 01:46:09;;;;;;;;;;;22.50;34.20;;;;;;680795;29;887;-81
2022/02/13 01:46:30;;;;;;;;;;;22.50;34.20;;;;;;681187;29;784;-79
2022/02/13 01:46:50;;;;;;;;;;;22.50;34.20;;;;;;683869;28;784;-80
2022/02/13 01:47:11;;;;;;;;;;;22.50;34.30;;;;;;686651;28;803;-80
2022/02/13 01:47:34;;;;;;;;;;;22.50;34.30;;;;;;688754;28;811;-81
2022/02/13 01:47:54;;;;;;;;;;;22.50;34.30;;;;;;688839;28;756;-80
2022/02/13 01:48:15;;;;;;;;;;;22.50;34.30;;;;;;688804;28;874;-79
2022/02/13 01:48:35;;;;;;;;;;;22.50;34.30;;;;;;685690;28;1195;-79
2022/02/13 01:48:56;;;;;;;;;;;22.50;34.30;;;;;;686744;28;1414;-79
2022/02/13 01:49:17;;;;;;;;;;;22.50;34.30;;;;;;688945;28;803;-79
2022/02/13 01:49:37;;;;;;;;;;;22.50;34.20;;;;;;688870;28;910;-78
2022/02/13 01:49:58;;;;;;;;;;;22.50;34.30;;;;;;688877;28;843;-80
2022/02/13 01:50:18;;;;;;;;;;;22.50;34.30;;;;;;686338;28;1245;-82
2022/02/13 01:50:40;;;;;;;;;;;22.50;34.30;;;;;;688911;28;893;-81
2022/02/13 01:51:00;;;;;;;;;;;22.50;34.30;;;;;;688884;28;1287;-80
2022/02/13 01:51:23;;;;;;;;;;;22.50;34.40;;;;;;689059;28;783;-80
2022/02/13 01:51:43;;;;;;;;;;;22.50;34.30;;;;;;688830;28;913;-79
2022/02/13 01:52:04;;;;;;;;;;;22.50;34.30;;;;;;688967;28;822;-80
2022/02/13 01:52:25;;;;;;;;;;;22.50;34.40;;;;;;688717;28;1222;-80
2022/02/13 01:52:46;;;;;;;;;;;22.50;34.40;;;;;;688890;28;831;-80
2022/02/13 01:53:07;;;;;;;;;;;22.50;34.40;;;;;;687188;28;1974;-78
2022/02/13 01:53:28;;;;;;;;;;;22.40;34.30;;;;;;688782;28;950;-80
2022/02/13 01:53:49;;;;;;;;;;;22.50;34.40;;;;;;688793;28;1337;-81
2022/02/13 01:54:10;;;;;;;;;;;22.40;34.30;;;;;;688759;28;966;-79
2022/02/13 01:54:31;;;;;;;;;;;22.40;34.30;;;;;;685959;28;1508;-81
2022/02/13 01:54:52;;;;;;;;;;;22.40;34.30;;;;;;683825;28;1423;-81
2022/02/13 01:55:12;;;;;;;;;;;22.40;34.30;;;;;;686234;28;933;-82
2022/02/13 01:55:34;;;;;;;;;;;22.40;34.30;;;;;;683388;29;1099;-82
2022/02/13 01:55:55;;;;;;;;;;;22.40;34.40;;;;;;681187;28;1285;-81
2022/02/13 01:56:16;;;;;;;;;;;22.40;34.40;;;;;;681385;29;958;-83
2022/02/13 01:56:37;;;;;;;;;;;22.40;34.40;;;;;;684034;28;824;-82
2022/02/13 01:56:58;;;;;;;;;;;22.40;34.50;;;;;;685867;28;1342;-83
2022/02/13 01:57:18;;;;;;;;;;;22.40;34.50;;;;;;686809;28;935;-81
2022/02/13 01:57:39;;;;;;;;;;;22.40;34.50;;;;;;688753;28;1312;-82
2022/02/13 01:57:59;;;;;;;;;;;22.40;34.50;;;;;;688898;28;871;-82
2022/02/13 01:58:20;;;;;;;;;;;22.40;34.50;;;;;;688919;28;835;-82
2022/02/13 01:58:41;;;;;;;;;;;22.40;34.60;;;;;;691529;28;1387;-81
2022/02/13 01:59:02;;;;;;;;;;;22.40;34.50;;;;;;691471;28;784;-83
2022/02/13 01:59:23;;;;;;;;;;;22.40;34.50;;;;;;688772;28;1360;-82
2022/02/13 01:59:43;;;;;;;;;;;22.40;34.50;;;;;;688945;28;799;-82
2022/02/13 02:00:05;;;;;;;;;;;22.40;34.60;;;;;;688878;28;811;-83
2022/02/13 02:00:26;;;;;;;;;;;22.40;34.60;;;;;;688656;28;1312;-82
2022/02/13 02:00:46;;;;;;;;;;;22.40;34.50;;;;;;688882;28;846;-82
2022/02/13 02:01:07;;;;;;;;;;;22.40;34.50;;;;;;688775;28;760;-83
2022/02/13 02:01:28;;;;;;;;;;;22.40;34.60;;;;;;689039;28;834;-81
2022/02/13 02:01:49;;;;;;;;;;;22.40;34.60;;;;;;688989;28;870;-82
2022/02/13 02:02:09;;;;;;;;;;;22.40;34.60;;;;;;689802;28;1514;-83
2022/02/13 02:02:30;;;;;;;;;;;22.40;34.60;;;;;;691645;28;894;-82
2022/02/13 02:02:51;;;;;;;;;;;22.40;34.60;;;;;;691702;28;825;-82
2022/02/13 02:03:12;;;;;;;;;;;22.40;34.60;;;;;;691728;28;1898;-82
2022/02/13 02:03:32;;;;;;;;;;;22.40;34.60;;;;;;691765;28;728;-81
2022/02/13 02:03:53;;;;;;;;;;;22.30;34.50;;;;;;691611;28;1044;-81
2022/02/13 02:04:13;;;;;;;;;;;22.30;34.50;;;;;;691822;28;843;-82
2022/02/13 02:04:34;;;;;;;;;;;22.40;34.60;;;;;;691368;28;1364;-83
2022/02/13 02:04:57;;;;;;;;;;;22.40;34.70;;;;;;691408;28;799;-83
2022/02/13 02:05:18;;;;;;;;;;;22.40;34.70;;;;;;691570;28;921;-82
2022/02/13 02:05:38;;;;;;;;;;;22.30;34.60;;;;;;691531;28;945;-82
2022/02/13 02:05:59;;;;;;;;;;;22.30;34.60;;;;;;688603;28;1274;-82
2022/02/13 02:06:20;;;;;;;;;;;22.30;34.60;;;;;;689330;28;853;-81